Villa Maria, Pennsylvania
Current Conditions -  °F | °C
As of 6:51 PM on Saturday 22 Nov 2014 (Local Time) from KYNG Reporting Station
Overcast Overcast  
Wind Chill: 36°   Ceiling: 5000
Heat Index: 42°   Visibility: 10mi
Dew Point: 33°   Wind: 10mph
Humidity: 70%   Direction: 190°S
Pressure: 30.08"   Gusts: NA
Location:  41.07°N, 80.51°W
Report Text: KYNG 222351Z 19009KT 10SM SCT038 BKN050 OVC110 06/01 A3008 RMK AO2 SLP196 4/001 60000 T00560006 10056 20022 58005
Loading
Personal Weather Stations






























Interactive Weather Map New forecast layout! Learn more

10-Day Weather Forecast

Advertisements
Track Severe Weather on mobile